Portada
METAR-TAF:

METAR-TAF

Aeropuertos :

Aeropuerto Internacional de Martinica Aimé Césaire

Fort-de-France, Martinica

latitud: 14-36N, longitud: 061-00W, altitud: 5 m

Observación

El informe se hizo hace 40 minutos, a las 01:30 UTC
Viento 3 kt del este-noreste
Temperatura 27°C
Humedad 84%
Presión 1015 hPa
Visibilidad 10 km o más
sin nubes por debajo de 1500 m y sin presencia de cumulonimbus.

METAR: TFFF 280130Z AUTO 06003KT CAVOK 27/24 Q1015 BECMG 12010KT

Hora: 22:10 (02:10 UTC)

Pronóstico

El informe se hizo hace 3 horas y 10 minutos, a las 23:00 UTC
Pronóstico válido del 28 a las 00 UTC al 28 a las 24 UTC
Viento 10 kt del este-sureste
Visibilidad 10 km o más
Nubes dispersas a una altura de 3000 ft

TAF: TFFF 272300Z 2800/2824 12010KT 9999 SCT030

Observaciones y pronósticos meteorológicos de más de 4000 aeropuertos (mensajes METAR y TAF).

Los puntos amarillos y rojos representan las estaciones disponibles.

Ponga el ratón en el punto deseado para ver el nombre de la estación.

Haga clic para ver las observaciones y los pronósticos meteorológicos.

Para cambiar el mapa : haga clic en los botones verdes con una cruz de color negro para hacer un zoom, en el botón verde con un guión para alejar o en las flechas verdes para mapas adyacentes.


METAR-TAF: